createdAt,value
2023-04-30T00:01:36.184Z,0.20
2023-04-30T00:04:06.198Z,0.20
2023-04-30T00:06:40.450Z,0.20
2023-04-30T00:09:07.496Z,0.20
2023-04-30T00:11:37.427Z,0.30
2023-04-30T00:14:05.455Z,0.20
2023-04-30T00:20:46.880Z,0.20
2023-04-30T00:23:15.242Z,0.20
2023-04-30T00:30:07.460Z,0.20
2023-04-30T00:32:35.119Z,0.30
2023-04-30T00:35:20.903Z,0.20
2023-04-30T00:37:48.979Z,0.20
2023-04-30T00:40:30.468Z,0.30
2023-04-30T00:43:00.805Z,0.30
2023-04-30T00:45:44.940Z,0.20
2023-04-30T00:48:12.437Z,0.25
2023-04-30T00:50:52.791Z,0.40
2023-04-30T00:53:20.194Z,0.20
2023-04-30T00:56:07.996Z,0.20
2023-04-30T00:58:36.073Z,0.20
2023-04-30T01:01:14.094Z,0.30
2023-04-30T01:03:43.689Z,0.30
2023-04-30T01:06:13.108Z,0.20
2023-04-30T01:08:40.452Z,0.20
2023-04-30T01:11:17.662Z,0.30
2023-04-30T01:14:02.908Z,0.30
2023-04-30T01:16:38.914Z,0.22
2023-04-30T01:19:12.075Z,0.30
2023-04-30T01:21:43.472Z,0.30
2023-04-30T01:24:31.857Z,0.20
2023-04-30T01:27:27.457Z,0.30
2023-04-30T01:33:45.889Z,0.30
2023-04-30T01:36:35.908Z,0.20
2023-04-30T01:39:28.767Z,0.20
2023-04-30T01:42:07.027Z,0.30
2023-04-30T01:44:49.256Z,0.30
2023-04-30T01:47:26.583Z,0.30
2023-04-30T17:57:52.096Z,0.00
2023-04-30T18:00:20.175Z,0.10
2023-04-30T18:02:47.630Z,0.00
2023-04-30T18:05:18.858Z,0.00
2023-04-30T18:07:59.063Z,0.00
2023-04-30T18:10:29.062Z,0.00
2023-04-30T18:13:01.467Z,0.00
2023-04-30T18:15:31.855Z,0.00
2023-04-30T18:17:59.452Z,0.03
2023-04-30T18:20:28.965Z,0.00
2023-04-30T18:23:05.913Z,0.00
2023-04-30T18:25:37.488Z,0.00
2023-04-30T18:28:07.668Z,0.00
2023-04-30T18:30:36.917Z,0.00
2023-04-30T18:33:05.521Z,0.10
2023-04-30T18:35:34.395Z,0.00
2023-04-30T18:38:05.753Z,0.00
2023-04-30T18:40:41.542Z,0.00
2023-04-30T18:43:17.741Z,0.00
2023-04-30T18:45:45.032Z,0.10
2023-04-30T18:48:18.007Z,0.10
2023-04-30T18:50:47.418Z,0.00
2023-04-30T18:53:26.231Z,0.00
2023-04-30T18:55:54.341Z,0.00
2023-04-30T18:58:42.688Z,0.00
2023-04-30T19:01:10.282Z,0.10
2023-04-30T19:03:51.740Z,0.00
2023-04-30T19:06:28.393Z,0.10
2023-04-30T19:09:13.430Z,0.00
2023-04-30T19:11:43.606Z,0.05
2023-04-30T19:14:27.759Z,0.00
2023-04-30T19:17:00.529Z,0.10
2023-04-30T19:19:43.803Z,0.00
2023-04-30T19:22:14.394Z,0.10
2023-04-30T19:25:00.770Z,0.10
2023-04-30T19:27:28.064Z,0.00
2023-04-30T19:30:32.538Z,0.00
2023-04-30T19:33:05.609Z,0.00
2023-04-30T19:35:37.514Z,0.00
2023-04-30T19:38:04.684Z,0.00
2023-04-30T19:40:47.652Z,0.10
2023-04-30T19:43:18.135Z,0.00
2023-04-30T19:46:02.869Z,0.10
2023-04-30T19:48:33.675Z,0.10
2023-04-30T19:51:22.557Z,0.10
2023-04-30T19:53:52.173Z,0.00
2023-04-30T19:56:36.405Z,0.10
2023-04-30T19:59:06.942Z,0.00
2023-04-30T20:01:48.885Z,0.10
2023-04-30T20:04:18.924Z,0.10
2023-04-30T20:07:07.671Z,0.10
2023-04-30T20:09:34.755Z,0.10
2023-04-30T20:12:13.214Z,0.10
2023-04-30T20:14:43.432Z,0.10
2023-04-30T20:17:34.407Z,0.10
2023-04-30T20:20:01.592Z,0.00
2023-04-30T20:22:31.893Z,0.10
2023-04-30T20:25:02.694Z,0.10
2023-04-30T20:27:30.064Z,0.10
2023-04-30T20:29:59.038Z,0.10
2023-04-30T20:32:26.441Z,0.10
2023-04-30T20:35:00.558Z,0.10
2023-04-30T20:39:57.246Z,0.10
2023-04-30T20:42:27.123Z,0.10
2023-04-30T20:44:57.395Z,0.10
2023-04-30T20:47:24.601Z,0.10
2023-04-30T20:49:51.615Z,0.10
2023-04-30T20:52:23.217Z,0.10
2023-04-30T20:54:50.677Z,0.10
2023-04-30T20:57:19.531Z,0.10
2023-04-30T20:59:46.479Z,0.10
2023-04-30T21:02:14.268Z,0.10
2023-04-30T21:05:04.396Z,0.10
2023-04-30T21:07:36.930Z,0.10
2023-04-30T21:10:14.075Z,0.10
2023-04-30T21:12:44.062Z,0.10
2023-04-30T21:15:24.382Z,0.10
2023-04-30T21:17:51.432Z,0.10
2023-04-30T21:20:19.345Z,0.10
2023-04-30T21:22:50.077Z,0.10
2023-04-30T21:25:17.318Z,0.05
2023-04-30T21:27:45.678Z,0.10
2023-04-30T21:30:15.272Z,0.00
2023-04-30T21:32:49.694Z,0.10
2023-04-30T21:35:17.091Z,0.10
2023-04-30T21:37:48.329Z,0.10
2023-04-30T21:40:15.935Z,0.10
2023-04-30T21:42:50.270Z,0.10
2023-04-30T21:45:17.449Z,0.10
2023-04-30T21:47:47.518Z,0.10
2023-04-30T21:50:15.989Z,0.10
2023-04-30T21:52:47.778Z,0.10
2023-04-30T21:55:16.296Z,0.10
2023-04-30T21:57:46.201Z,0.10
2023-04-30T22:00:16.377Z,0.10
2023-04-30T22:02:43.493Z,0.10
2023-04-30T22:05:12.997Z,0.10
2023-04-30T22:08:01.565Z,0.10
2023-04-30T22:10:32.944Z,0.10
2023-04-30T22:13:13.922Z,0.10
2023-04-30T22:18:25.969Z,0.10
2023-04-30T22:20:59.521Z,0.10
2023-04-30T22:23:40.977Z,0.10
2023-04-30T22:26:11.526Z,0.10
2023-04-30T22:28:38.638Z,0.10
2023-04-30T22:31:06.148Z,0.10
2023-04-30T22:33:38.239Z,0.10
2023-04-30T22:36:08.710Z,0.10
2023-04-30T22:38:38.547Z,0.10
2023-04-30T22:41:10.637Z,0.10
2023-04-30T22:43:37.769Z,0.10
2023-04-30T22:46:07.635Z,0.10
2023-04-30T22:48:35.109Z,0.10
2023-04-30T22:51:02.848Z,0.10
2023-04-30T22:53:33.610Z,0.10
2023-04-30T22:56:08.120Z,0.10
2023-04-30T22:58:38.861Z,0.10
2023-04-30T23:01:12.662Z,0.20
2023-04-30T23:03:40.007Z,0.10
2023-04-30T23:06:12.147Z,0.10
2023-04-30T23:08:40.260Z,0.20
2023-04-30T23:11:08.877Z,0.20
2023-04-30T23:13:44.384Z,0.10
2023-04-30T23:16:20.189Z,0.20
2023-04-30T23:18:49.904Z,0.10
2023-04-30T23:21:34.219Z,0.10
2023-04-30T23:24:04.260Z,0.10
2023-04-30T23:26:47.404Z,0.20
2023-04-30T23:29:19.042Z,0.10
2023-04-30T23:32:05.887Z,0.15
2023-04-30T23:34:33.111Z,0.10
2023-04-30T23:37:12.275Z,0.10
2023-04-30T23:39:39.820Z,0.13
2023-04-30T23:42:10.203Z,0.20
2023-04-30T23:44:41.009Z,0.10
2023-04-30T23:47:10.976Z,0.10
2023-04-30T23:49:37.985Z,0.13
2023-04-30T23:52:05.390Z,0.10
2023-04-30T23:54:35.828Z,0.20
2023-04-30T23:57:10.118Z,0.20
